Time;durP1;ratioP1;P1;durP2;ratioP2;P2;SDS_P1;SDS_P2;PMS_P1;PMS_P2;Temp;Humidity;BMP_temperature;BMP_pressure;BME280_temperature;BME280_humidity;BME280_pressure;Samples;Min_cycle;Max_cycle;Signal;HPM_P1;HPM_P2
2022/03/21 00:00:45;;;;;;;11.77;8.53;;;7.20;99.90;;;;;;5079652;28;20431;-79
2022/03/21 00:03:29;;;;;;;13.80;8.77;;;7.40;99.90;;;;;;5079458;28;20435;-79
2022/03/21 00:06:14;;;;;;;11.00;9.00;;;7.40;99.90;;;;;;5079782;28;20376;-79
2022/03/21 00:09:00;;;;;;;17.60;11.73;;;7.10;99.90;;;;;;5079712;28;20386;-80
2022/03/21 00:11:44;;;;;;;13.57;10.60;;;7.00;99.90;;;;;;5063836;28;20447;-80
2022/03/21 00:14:29;;;;;;;17.53;9.87;;;6.60;99.90;;;;;;5082037;28;20401;-79
2022/03/21 00:17:14;;;;;;;14.13;9.87;;;6.30;99.90;;;;;;5083667;28;20734;-80
2022/03/21 00:19:58;;;;;;;11.13;9.03;;;6.20;99.90;;;;;;5083934;28;20466;-80
2022/03/21 00:22:43;;;;;;;14.30;10.90;;;6.30;99.90;;;;;;5083455;28;20401;-80
2022/03/21 00:25:29;;;;;;;29.77;13.13;;;6.70;99.90;;;;;;5082805;28;20408;-79
2022/03/21 00:28:13;;;;;;;14.70;9.60;;;7.00;99.90;;;;;;5083589;28;20389;-79
2022/03/21 00:30:58;;;;;;;11.50;7.63;;;6.70;99.90;;;;;;5084054;28;20440;-79
2022/03/21 00:33:43;;;;;;;10.80;9.23;;;6.50;99.90;;;;;;5083271;28;20719;-80
2022/03/21 00:36:27;;;;;;;14.83;9.77;;;6.70;99.90;;;;;;5084305;28;20389;-79
2022/03/21 00:39:12;;;;;;;14.40;9.20;;;6.60;99.90;;;;;;5100313;28;20405;-79
2022/03/21 00:41:57;;;;;;;13.80;8.63;;;6.90;99.90;;;;;;5085740;28;20400;-80
2022/03/21 00:44:41;;;;;;;12.00;9.10;;;7.00;99.90;;;;;;5082755;28;20388;-80
2022/03/21 00:47:26;;;;;;;9.50;7.20;;;6.90;99.90;;;;;;5083751;28;20397;-80
2022/03/21 00:50:14;;;;;;;14.77;8.70;;;6.80;99.90;;;;;;5083260;28;20451;-79
2022/03/21 00:52:58;;;;;;;10.13;7.67;;;6.70;99.90;;;;;;5083940;28;20389;-80
2022/03/21 00:55:43;;;;;;;11.37;7.83;;;6.60;99.90;;;;;;5084084;28;20547;-80
2022/03/21 00:58:28;;;;;;;9.83;7.90;;;6.60;99.90;;;;;;5100867;28;20393;-79
2022/03/21 01:01:13;;;;;;;11.17;8.00;;;6.50;99.90;;;;;;5085973;28;20377;-81
2022/03/21 01:03:58;;;;;;;11.30;8.80;;;6.50;99.90;;;;;;5100578;28;20540;-79
2022/03/21 01:06:42;;;;;;;9.67;7.20;;;6.50;99.90;;;;;;5098342;28;20392;-80
2022/03/21 01:09:27;;;;;;;18.07;7.80;;;6.40;99.90;;;;;;5083431;28;20428;-79
2022/03/21 01:12:11;;;;;;;8.93;6.83;;;6.50;99.90;;;;;;5082077;28;20484;-79
2022/03/21 01:14:56;;;;;;;11.37;7.43;;;6.50;99.90;;;;;;5082919;28;20904;-80
2022/03/21 01:17:42;;;;;;;17.30;7.93;;;6.60;99.90;;;;;;5083013;28;20891;-80
2022/03/21 01:20:27;;;;;;;10.73;8.77;;;6.50;99.90;;;;;;5082324;28;20725;-79
2022/03/21 01:23:11;;;;;;;14.40;7.97;;;6.40;99.90;;;;;;5082000;28;20936;-79
2022/03/21 01:25:56;;;;;;;10.20;7.77;;;6.60;99.90;;;;;;5082057;28;20385;-79
2022/03/21 01:28:40;;;;;;;11.73;9.03;;;6.30;99.90;;;;;;5082572;28;20427;-80
2022/03/21 01:31:25;;;;;;;11.73;8.27;;;6.70;99.90;;;;;;5082484;28;20507;-80
2022/03/21 01:34:09;;;;;;;12.77;9.67;;;6.90;99.90;;;;;;5082115;28;20373;-79
2022/03/21 01:36:54;;;;;;;8.73;7.90;;;6.90;99.90;;;;;;5082889;28;20388;-79
2022/03/21 01:39:39;;;;;;;13.60;8.53;;;6.90;99.90;;;;;;5082178;28;20380;-79
2022/03/21 01:42:24;;;;;;;9.17;7.23;;;6.90;99.90;;;;;;5082438;28;20397;-79
2022/03/21 01:45:08;;;;;;;11.80;7.80;;;6.90;99.90;;;;;;5082220;28;20388;-79
2022/03/21 01:47:53;;;;;;;10.80;7.70;;;6.60;99.90;;;;;;5081932;28;20429;-79
2022/03/21 01:50:37;;;;;;;15.70;9.40;;;6.50;99.90;;;;;;5082484;28;20401;-78
2022/03/21 01:56:18;;;;;;;10.03;7.77;;;5.90;99.90;;;;;;5081934;28;20424;-80
2022/03/21 01:59:03;;;;;;;8.50;6.53;;;5.70;99.90;;;;;;5081939;28;20385;-79
2022/03/21 02:01:49;;;;;;;9.57;7.17;;;5.70;99.90;;;;;;5081930;28;20384;-80
2022/03/21 02:04:33;;;;;;;9.60;6.87;;;5.50;99.90;;;;;;5081394;28;20448;-79
2022/03/21 02:07:18;;;;;;;7.27;6.53;;;5.20;99.90;;;;;;5081922;28;20512;-80
2022/03/21 02:10:05;;;;;;;12.40;8.73;;;5.30;99.90;;;;;;5081860;28;20427;-80
2022/03/21 02:12:50;;;;;;;15.23;9.63;;;5.50;99.90;;;;;;5081337;28;20445;-79
2022/03/21 02:15:35;;;;;;;14.43;7.83;;;5.80;99.90;;;;;;5081783;28;20390;-79
2022/03/21 02:18:20;;;;;;;9.00;7.13;;;5.90;99.90;;;;;;5081248;28;20527;-80
2022/03/21 02:21:10;;;;;;;12.40;6.90;;;6.00;99.90;;;;;;5081884;28;20492;-80
2022/03/21 02:24:02;;;;;;;11.47;7.83;;;6.10;99.90;;;;;;5068966;28;20415;-80
2022/03/21 02:26:47;;;;;;;12.73;9.63;;;6.20;99.90;;;;;;5081307;28;20397;-79
2022/03/21 02:29:32;;;;;;;11.10;8.37;;;6.10;99.90;;;;;;5082327;28;20442;-79
2022/03/21 02:32:16;;;;;;;8.37;7.53;;;6.20;99.90;;;;;;5083916;28;20526;-80
2022/03/21 02:35:02;;;;;;;8.10;6.67;;;6.20;99.90;;;;;;5084469;28;20392;-79
2022/03/21 02:37:48;;;;;;;11.23;8.17;;;6.20;99.90;;;;;;5092157;28;20408;-80
2022/03/21 02:40:33;;;;;;;11.83;8.87;;;6.20;99.90;;;;;;5080758;28;20385;-79
2022/03/21 02:43:17;;;;;;;17.33;8.63;;;6.20;99.90;;;;;;5080550;28;20381;-79
2022/03/21 02:46:05;;;;;;;13.67;8.10;;;6.00;99.90;;;;;;5080531;28;20438;-80
2022/03/21 02:48:52;;;;;;;16.27;7.37;;;5.90;99.90;;;;;;5080643;28;20409;-80
2022/03/21 02:51:38;;;;;;;11.40;7.60;;;5.80;99.90;;;;;;5080567;28;20491;-80
2022/03/21 02:54:23;;;;;;;9.57;7.10;;;5.80;99.90;;;;;;5080316;28;20393;-80
2022/03/21 02:57:08;;;;;;;14.37;7.40;;;5.80;99.90;;;;;;5080173;28;20382;-80
2022/03/21 02:59:52;;;;;;;9.03;8.13;;;5.70;99.90;;;;;;5080621;28;20737;-80
2022/03/21 03:02:38;;;;;;;13.73;8.50;;;5.60;99.90;;;;;;5080572;28;20382;-80
2022/03/21 03:05:23;;;;;;;11.33;8.07;;;5.60;99.90;;;;;;5079412;28;20475;-80
2022/03/21 03:08:08;;;;;;;15.77;8.40;;;5.30;99.90;;;;;;5079627;28;20388;-80
2022/03/21 03:10:52;;;;;;;15.63;8.20;;;5.30;99.90;;;;;;5080042;28;20444;-80
2022/03/21 03:13:37;;;;;;;8.63;7.43;;;4.90;99.90;;;;;;5080132;28;20454;-79
2022/03/21 03:16:21;;;;;;;10.57;6.83;;;4.30;99.90;;;;;;5064795;28;20417;-79
2022/03/21 03:19:06;;;;;;;12.53;9.83;;;3.90;99.90;;;;;;5079402;28;20402;-80
2022/03/21 03:21:51;;;;;;;14.20;8.63;;;3.80;99.90;;;;;;5079819;28;20450;-80
2022/03/21 03:24:37;;;;;;;9.27;8.23;;;3.70;99.90;;;;;;5079813;28;20885;-80
2022/03/21 03:27:21;;;;;;;10.73;7.60;;;3.80;99.90;;;;;;5079718;28;20405;-80
2022/03/21 03:30:06;;;;;;;9.93;7.00;;;3.80;99.90;;;;;;5079608;28;20385;-79
2022/03/21 03:32:51;;;;;;;8.00;6.97;;;3.70;99.90;;;;;;5079847;28;20493;-79
2022/03/21 03:35:37;;;;;;;10.87;6.83;;;3.60;99.90;;;;;;5068123;28;20385;-79
2022/03/21 03:38:23;;;;;;;10.83;8.10;;;3.60;99.90;;;;;;5087802;28;20412;-79
2022/03/21 03:41:10;;;;;;;13.00;7.80;;;3.40;99.90;;;;;;5074916;28;20389;-80
2022/03/21 03:43:54;;;;;;;10.27;7.47;;;3.50;99.90;;;;;;5085089;28;20393;-79
2022/03/21 03:46:39;;;;;;;18.53;9.20;;;3.60;99.90;;;;;;5085705;28;20412;-79
2022/03/21 03:49:24;;;;;;;10.27;7.37;;;3.90;99.90;;;;;;5084454;28;20386;-80
2022/03/21 03:52:09;;;;;;;12.47;6.70;;;4.40;99.90;;;;;;5084638;28;20530;-80
2022/03/21 03:54:53;;;;;;;8.37;7.50;;;4.50;99.90;;;;;;5086008;28;20424;-79
2022/03/21 03:57:38;;;;;;;13.47;7.60;;;4.30;99.90;;;;;;5085836;28;20389;-79
2022/03/21 04:00:23;;;;;;;10.77;7.87;;;4.00;99.90;;;;;;5085585;28;20979;-79
2022/03/21 04:06:06;;;;;;;8.60;7.70;;;3.80;99.90;;;;;;5086085;28;20477;-78
2022/03/21 04:08:52;;;;;;;12.20;8.33;;;3.80;99.90;;;;;;5071811;28;20481;-79
2022/03/21 04:11:37;;;;;;;38.63;7.33;;;3.80;99.90;;;;;;5088083;28;20448;-77
2022/03/21 04:14:21;;;;;;;8.30;7.17;;;3.60;99.90;;;;;;5084970;28;20393;-79
2022/03/21 04:17:06;;;;;;;11.93;7.53;;;3.60;99.90;;;;;;5079742;28;20381;-79
2022/03/21 04:19:51;;;;;;;10.37;7.43;;;3.50;99.90;;;;;;5079659;28;20392;-79
2022/03/21 04:22:36;;;;;;;13.50;7.80;;;3.80;99.90;;;;;;5065260;28;20393;-79
2022/03/21 04:25:21;;;;;;;18.33;9.73;;;3.90;99.90;;;;;;5079875;28;20844;-79
2022/03/21 04:28:10;;;;;;;10.23;7.27;;;4.20;99.90;;;;;;5079370;28;20385;-79
2022/03/21 04:30:54;;;;;;;9.10;7.70;;;4.40;99.90;;;;;;5079402;28;20464;-79
2022/03/21 04:33:39;;;;;;;12.27;8.67;;;4.50;99.90;;;;;;5078478;28;20730;-79
2022/03/21 04:36:23;;;;;;;17.73;8.97;;;4.70;99.90;;;;;;5061835;28;20401;-79
2022/03/21 04:39:08;;;;;;;15.90;8.27;;;4.80;99.90;;;;;;5084689;28;20442;-79
2022/03/21 04:41:52;;;;;;;9.80;8.63;;;4.70;99.90;;;;;;5087037;28;20400;-79
2022/03/21 04:44:39;;;;;;;11.13;7.93;;;4.70;99.90;;;;;;5094380;28;20373;-79
2022/03/21 04:47:23;;;;;;;10.97;7.80;;;4.60;99.90;;;;;;5109207;28;20408;-78
2022/03/21 04:50:09;;;;;;;15.40;9.97;;;4.70;99.90;;;;;;5116188;28;20376;-79
2022/03/21 04:52:53;;;;;;;12.60;8.70;;;4.70;99.90;;;;;;5116425;28;20547;-78
2022/03/21 04:55:40;;;;;;;12.43;9.33;;;4.60;99.90;;;;;;5101061;28;20420;-79
2022/03/21 04:58:24;;;;;;;12.50;7.03;;;4.60;99.90;;;;;;5084122;28;20384;-78
2022/03/21 05:01:08;;;;;;;12.40;8.20;;;4.60;99.90;;;;;;5086555;28;20798;-80
2022/03/21 05:03:53;;;;;;;15.40;10.00;;;4.60;99.90;;;;;;5102033;28;20448;-79
2022/03/21 05:06:38;;;;;;;13.07;7.90;;;4.60;99.90;;;;;;5102415;28;20381;-79
2022/03/21 05:09:23;;;;;;;9.10;8.20;;;4.60;99.90;;;;;;5102753;28;20408;-78
2022/03/21 05:12:08;;;;;;;18.70;9.07;;;4.50;99.90;;;;;;5102678;28;20446;-79
2022/03/21 05:14:53;;;;;;;15.10;9.60;;;4.40;99.90;;;;;;5103156;28;20423;-79
2022/03/21 05:17:38;;;;;;;11.17;7.97;;;4.50;99.90;;;;;;5102863;28;20457;-79
2022/03/21 05:20:23;;;;;;;11.13;9.63;;;4.50;99.90;;;;;;5103158;28;20388;-79
2022/03/21 05:32:02;;;;;;;11.67;7.97;;;4.50;99.90;;;;;;5083013;28;20953;-79
2022/03/21 05:37:46;;;;;;;11.43;9.27;;;4.20;99.90;;;;;;5085309;28;20384;-79
2022/03/21 05:40:31;;;;;;;15.50;9.53;;;4.30;99.90;;;;;;5085808;28;20396;-80
2022/03/21 05:43:16;;;;;;;10.60;8.80;;;4.40;99.90;;;;;;5086863;28;20389;-79
2022/03/21 05:46:03;;;;;;;12.60;10.30;;;4.40;99.90;;;;;;5084362;28;20519;-79
2022/03/21 05:48:50;;;;;;;12.63;8.40;;;4.40;99.90;;;;;;5068703;28;20404;-80
2022/03/21 05:51:38;;;;;;;14.03;9.77;;;4.40;99.90;;;;;;5085680;28;20448;-80
2022/03/21 05:54:24;;;;;;;16.00;9.10;;;4.30;99.90;;;;;;5082733;28;20397;-80
2022/03/21 05:57:08;;;;;;;13.33;9.60;;;4.40;99.90;;;;;;5081727;28;20389;-80
2022/03/21 06:02:51;;;;;;;11.37;8.00;;;4.20;99.90;;;;;;5081297;28;20420;-79
2022/03/21 06:05:35;;;;;;;12.13;7.80;;;3.60;99.90;;;;;;5101450;28;20503;-79
2022/03/21 06:08:20;;;;;;;11.97;9.77;;;3.60;99.90;;;;;;5086518;28;20452;-79
2022/03/21 06:11:05;;;;;;;11.57;8.77;;;3.90;99.90;;;;;;5098734;28;20510;-79
2022/03/21 06:13:50;;;;;;;12.30;8.40;;;3.70;99.90;;;;;;5101131;28;20391;-79
2022/03/21 06:16:35;;;;;;;16.23;9.03;;;3.80;99.90;;;;;;5103804;28;20446;-79
2022/03/21 06:19:19;;;;;;;11.40;8.23;;;3.90;99.90;;;;;;5103247;28;20466;-79
2022/03/21 06:22:04;;;;;;;8.63;6.80;;;4.10;99.90;;;;;;5088282;28;20396;-80
2022/03/21 06:24:49;;;;;;;12.70;8.70;;;4.50;99.90;;;;;;5101075;28;20396;-80
2022/03/21 06:27:38;;;;;;;9.17;8.30;;;4.80;99.90;;;;;;5100151;28;20744;-81
2022/03/21 06:30:23;;;;;;;10.67;8.53;;;5.10;99.90;;;;;;5079468;28;20586;-79
2022/03/21 06:33:07;;;;;;;16.57;9.13;;;5.20;99.90;;;;;;5079897;28;20497;-80
2022/03/21 06:35:52;;;;;;;15.03;9.23;;;5.20;99.90;;;;;;5070105;28;20411;-81
2022/03/21 06:38:37;;;;;;;18.77;11.90;;;5.20;99.90;;;;;;5087355;28;20442;-80
2022/03/21 06:41:21;;;;;;;12.83;8.77;;;5.30;99.90;;;;;;5082478;28;20387;-80
2022/03/21 06:44:06;;;;;;;11.57;8.27;;;5.20;99.90;;;;;;5104304;28;20407;-80
2022/03/21 06:46:51;;;;;;;24.00;11.03;;;5.20;99.90;;;;;;5076504;28;20444;-80
2022/03/21 06:49:36;;;;;;;16.00;12.07;;;5.30;99.90;;;;;;5100243;28;20498;-79
2022/03/21 06:52:20;;;;;;;17.23;8.83;;;5.20;99.90;;;;;;5088818;28;20696;-80
2022/03/21 06:55:10;;;;;;;14.57;9.27;;;5.30;99.90;;;;;;5066912;28;20440;-80
2022/03/21 06:57:55;;;;;;;14.83;9.60;;;5.40;99.90;;;;;;5104781;28;20413;-79
2022/03/21 07:00:43;;;;;;;18.13;12.23;;;5.10;99.90;;;;;;5093687;28;20900;-80
2022/03/21 07:03:28;;;;;;;10.70;8.40;;;5.10;99.90;;;;;;5093020;28;20791;-80
2022/03/21 07:06:12;;;;;;;16.17;10.70;;;5.30;99.90;;;;;;5097252;28;20388;-80
2022/03/21 07:08:57;;;;;;;19.27;13.03;;;5.40;99.90;;;;;;5086606;28;20469;-80
2022/03/21 07:11:42;;;;;;;13.50;10.20;;;5.40;99.90;;;;;;5098179;28;20498;-79
2022/03/21 07:14:27;;;;;;;19.60;11.23;;;5.60;99.90;;;;;;5092312;28;20455;-79
2022/03/21 07:17:11;;;;;;;16.77;11.70;;;5.80;99.90;;;;;;5082388;28;20422;-77
2022/03/21 07:19:56;;;;;;;13.67;10.27;;;6.00;99.90;;;;;;5082194;28;20967;-79
2022/03/21 07:22:40;;;;;;;14.77;10.17;;;6.10;99.90;;;;;;5085451;28;20490;-78
2022/03/21 07:25:25;;;;;;;17.50;11.80;;;6.20;99.90;;;;;;5090733;28;20423;-79
2022/03/21 07:28:10;;;;;;;16.67;10.17;;;6.40;99.90;;;;;;5089024;28;20898;-80
2022/03/21 07:30:55;;;;;;;14.43;10.87;;;6.30;99.90;;;;;;5091602;28;20431;-79
2022/03/21 07:33:41;;;;;;;10.07;8.97;;;6.50;99.90;;;;;;5079471;28;20412;-78
2022/03/21 07:36:25;;;;;;;15.13;10.10;;;6.50;99.90;;;;;;5090867;28;20462;-78
2022/03/21 07:39:12;;;;;;;13.23;10.50;;;6.60;99.90;;;;;;5087838;28;20466;-80
2022/03/21 07:42:00;;;;;;;12.97;9.07;;;6.80;99.90;;;;;;5082712;28;20419;-80
2022/03/21 07:47:45;;;;;;;14.80;10.07;;;7.00;99.90;;;;;;5082165;28;20539;-79
2022/03/21 07:50:30;;;;;;;16.30;9.00;;;7.20;99.90;;;;;;5081416;28;20439;-79
2022/03/21 07:53:15;;;;;;;21.73;9.50;;;6.80;99.90;;;;;;5093300;28;20427;-79
2022/03/21 07:56:00;;;;;;;11.50;9.57;;;6.70;99.90;;;;;;5076653;28;20574;-79
2022/03/21 07:58:44;;;;;;;20.40;12.50;;;6.80;99.90;;;;;;5096201;28;20469;-80
2022/03/21 08:01:29;;;;;;;15.83;12.50;;;7.00;99.90;;;;;;5084468;28;20421;-79
2022/03/21 08:04:14;;;;;;;16.33;10.07;;;7.20;99.90;;;;;;5086785;28;20495;-79
2022/03/21 08:06:59;;;;;;;11.70;8.50;;;7.40;99.90;;;;;;5094298;28;20928;-79
2022/03/21 08:09:46;;;;;;;30.57;10.87;;;7.50;99.90;;;;;;5093867;28;20442;-79
2022/03/21 08:12:30;;;;;;;12.87;8.67;;;7.60;99.90;;;;;;5073570;28;20518;-80
2022/03/21 08:15:18;;;;;;;13.30;9.33;;;7.60;99.90;;;;;;5089742;28;20514;-79
2022/03/21 08:18:04;;;;;;;17.40;10.87;;;7.50;99.90;;;;;;5098264;28;20480;-79
2022/03/21 08:20:49;;;;;;;10.37;8.37;;;7.50;99.90;;;;;;5081654;28;20459;-79
2022/03/21 08:23:34;;;;;;;9.90;7.53;;;7.30;99.90;;;;;;5081875;28;20428;-78
2022/03/21 08:26:18;;;;;;;14.03;8.10;;;7.40;99.10;;;;;;5089688;28;20494;-79
2022/03/21 08:29:03;;;;;;;9.00;7.40;;;7.40;99.80;;;;;;5080211;28;20428;-78
2022/03/21 08:31:48;;;;;;;9.03;7.10;;;7.50;94.90;;;;;;5096345;28;20556;-80
2022/03/21 08:34:32;;;;;;;11.33;8.23;;;7.80;97.80;;;;;;5097690;28;20430;-80
2022/03/21 08:37:18;;;;;;;10.17;8.70;;;8.30;94.00;;;;;;5072798;28;20395;-78
2022/03/21 08:40:03;;;;;;;10.50;7.23;;;7.50;92.40;;;;;;5093420;28;20408;-80
2022/03/21 08:42:48;;;;;;;9.70;7.20;;;7.70;94.70;;;;;;5093643;28;20433;-80
2022/03/21 08:45:33;;;;;;;8.67;6.90;;;8.10;94.40;;;;;;5089264;28;20505;-80
2022/03/21 08:48:17;;;;;;;17.67;9.00;;;8.20;92.70;;;;;;5089996;28;20562;-80
2022/03/21 08:51:02;;;;;;;10.93;8.10;;;8.60;91.20;;;;;;5086712;28;20971;-80
2022/03/21 08:53:47;;;;;;;12.07;8.00;;;8.30;90.00;;;;;;5086766;28;20424;-79
2022/03/21 08:56:31;;;;;;;7.40;6.30;;;8.60;91.80;;;;;;5081035;28;20505;-80
2022/03/21 08:59:16;;;;;;;9.80;7.93;;;9.10;91.80;;;;;;5083223;28;20432;-79
2022/03/21 09:02:01;;;;;;;11.80;7.33;;;8.70;90.70;;;;;;5092297;28;20440;-80
2022/03/21 09:04:45;;;;;;;9.80;7.40;;;9.20;90.80;;;;;;5051742;28;20455;-79
2022/03/21 09:07:30;;;;;;;11.20;7.10;;;8.80;85.90;;;;;;5091741;28;20513;-79
2022/03/21 09:10:16;;;;;;;8.47;6.97;;;9.40;90.20;;;;;;5075774;28;20906;-78
2022/03/21 09:13:00;;;;;;;9.80;7.73;;;9.50;89.90;;;;;;5086477;28;20552;-80
2022/03/21 09:15:45;;;;;;;8.90;6.93;;;9.50;83.70;;;;;;5088866;28;20448;-79
2022/03/21 09:18:29;;;;;;;16.23;8.50;;;9.70;82.70;;;;;;5090452;28;20807;-78
2022/03/21 09:21:14;;;;;;;10.93;8.60;;;9.70;80.00;;;;;;5093389;28;20460;-81
2022/03/21 09:23:58;;;;;;;10.87;7.20;;;10.00;75.40;;;;;;5092057;28;20771;-82
2022/03/21 09:26:43;;;;;;;11.03;8.07;;;9.90;75.00;;;;;;5089273;28;20846;-81
2022/03/21 09:29:47;;;;;;;11.60;7.23;;;10.10;73.00;;;;;;5092103;28;20439;-81
2022/03/21 09:32:32;;;;;;;14.03;8.33;;;10.50;70.80;;;;;;5055153;28;20894;-80
2022/03/21 09:35:16;;;;;;;7.10;6.40;;;11.00;70.40;;;;;;5052921;28;20790;-82
2022/03/21 09:38:03;;;;;;;12.33;7.10;;;11.30;69.30;;;;;;5044375;28;20438;-82
2022/03/21 09:40:48;;;;;;;13.77;7.67;;;11.80;65.60;;;;;;5034021;28;20549;-82
2022/03/21 09:43:32;;;;;;;8.80;6.43;;;11.50;61.80;;;;;;5046464;28;20448;-82
2022/03/21 09:46:17;;;;;;;11.37;7.87;;;11.30;60.90;;;;;;5046039;28;20503;-83
2022/03/21 09:49:03;;;;;;;9.73;7.40;;;11.30;61.90;;;;;;5050910;28;20999;-82
2022/03/21 09:51:49;;;;;;;16.47;8.00;;;11.80;62.10;;;;;;5064657;28;20477;-81
2022/03/21 09:54:34;;;;;;;11.43;7.73;;;12.30;63.10;;;;;;5043743;28;22048;-81
2022/03/21 09:57:39;;;;;;;9.70;7.30;;;12.20;59.20;;;;;;5040331;28;20429;-81
2022/03/21 10:00:26;;;;;;;11.10;8.37;;;13.00;58.90;;;;;;5045725;28;20494;-81
2022/03/21 10:03:10;;;;;;;11.10;8.90;;;13.90;60.50;;;;;;5060011;28;21009;-81
2022/03/21 10:05:56;;;;;;;7.50;6.77;;;13.30;56.30;;;;;;5073248;28;20428;-80
2022/03/21 10:08:41;;;;;;;13.30;7.30;;;13.50;56.80;;;;;;5050326;28;20594;-81
2022/03/21 10:11:26;;;;;;;12.90;7.33;;;12.70;56.70;;;;;;5052695;28;20559;-80
2022/03/21 10:14:32;;;;;;;9.70;7.67;;;13.00;56.70;;;;;;5055255;28;20482;-82
2022/03/21 10:17:22;;;;;;;9.47;7.37;;;14.00;56.80;;;;;;5063612;28;20452;-83
2022/03/21 10:20:13;;;;;;;11.03;7.33;;;14.50;52.80;;;;;;5059121;28;20465;-82
2022/03/21 10:23:15;;;;;;;13.23;7.80;;;13.90;52.30;;;;;;5065563;28;20439;-82
2022/03/21 10:26:00;;;;;;;8.40;7.20;;;15.00;55.30;;;;;;5051355;28;20508;-82
2022/03/21 10:28:44;;;;;;;7.60;6.73;;;15.60;51.00;;;;;;5080871;28;20455;-82
2022/03/21 10:31:48;;;;;;;10.30;7.70;;;15.70;53.40;;;;;;5088651;28;20489;-82
2022/03/21 10:34:34;;;;;;;12.50;7.97;;;14.00;51.70;;;;;;5097850;28;20435;-80
2022/03/21 10:37:20;;;;;;;8.07;7.27;;;13.30;52.90;;;;;;5066629;28;20277;-83
2022/03/21 10:40:15;;;;;;;9.03;7.50;;;14.50;53.40;;;;;;5100116;28;20444;-82
2022/03/21 10:43:05;;;;;;;10.00;8.70;;;13.60;51.50;;;;;;5093256;28;20436;-83
2022/03/21 10:45:53;;;;;;;11.13;8.57;;;15.00;52.00;;;;;;5094655;28;20436;-82
2022/03/21 10:48:38;;;;;;;9.90;7.03;;;14.30;51.20;;;;;;5094341;28;20448;-82
2022/03/21 10:51:22;;;;;;;8.67;7.87;;;14.10;54.00;;;;;;5096482;28;20506;-83
2022/03/21 10:54:07;;;;;;;9.40;8.47;;;13.50;52.80;;;;;;5091225;28;20434;-82
2022/03/21 10:56:52;;;;;;;10.63;9.07;;;14.40;52.20;;;;;;5098230;28;20501;-82
2022/03/21 10:59:37;;;;;;;10.27;8.67;;;15.70;51.10;;;;;;5096619;28;20526;-82
2022/03/21 11:02:21;;;;;;;10.47;7.80;;;15.90;50.90;;;;;;5084864;28;20488;-83
2022/03/21 11:05:08;;;;;;;14.87;8.60;;;15.20;50.60;;;;;;5098998;28;20460;-82
2022/03/21 11:07:54;;;;;;;9.17;8.10;;;15.70;51.50;;;;;;5094504;28;21353;-82
2022/03/21 11:10:39;;;;;;;11.30;8.80;;;15.80;51.60;;;;;;5092729;28;20895;-83
2022/03/21 11:13:27;;;;;;;13.10;8.63;;;16.60;50.00;;;;;;5094300;28;20247;-81
2022/03/21 11:16:18;;;;;;;10.07;8.03;;;16.60;48.90;;;;;;5082463;28;20552;-82
2022/03/21 11:19:03;;;;;;;10.00;8.70;;;16.10;48.40;;;;;;5092498;28;20487;-79
2022/03/21 11:21:50;;;;;;;9.97;8.23;;;15.70;49.10;;;;;;5081823;28;20432;-78
2022/03/21 11:24:39;;;;;;;10.03;8.47;;;15.70;49.80;;;;;;5100821;28;20431;-79
2022/03/21 11:27:56;;;;;;;9.83;8.83;;;15.80;49.80;;;;;;5099540;28;20492;-78
2022/03/21 11:31:00;;;;;;;11.80;8.47;;;17.30;48.70;;;;;;5095030;28;20494;-82
2022/03/21 11:33:55;;;;;;;9.67;8.73;;;18.00;47.50;;;;;;5098501;28;20452;-79
2022/03/21 11:36:56;;;;;;;11.20;9.30;;;16.80;47.00;;;;;;5106312;28;20437;-80
2022/03/21 11:39:41;;;;;;;9.97;8.97;;;18.40;48.20;;;;;;5088066;28;20441;-80
2022/03/21 11:42:26;;;;;;;10.73;9.23;;;19.00;47.80;;;;;;5087402;28;20917;-81
2022/03/21 11:45:29;;;;;;;9.23;8.33;;;18.80;45.30;;;;;;5090456;28;20432;-81
2022/03/21 11:48:33;;;;;;;10.47;9.47;;;18.80;44.30;;;;;;5081429;28;20772;-82
2022/03/21 11:51:23;;;;;;;10.17;9.13;;;16.60;45.40;;;;;;5070367;28;20455;-80
2022/03/21 11:54:26;;;;;;;10.60;9.60;;;18.50;46.10;;;;;;5098458;28;20428;-79
2022/03/21 11:57:28;;;;;;;9.83;8.73;;;18.70;44.60;;;;;;5098615;28;20415;-78
2022/03/21 12:00:15;;;;;;;13.30;10.80;;;18.10;45.00;;;;;;5096892;28;20459;-78
2022/03/21 12:02:59;;;;;;;9.30;8.50;;;19.10;44.70;;;;;;5090647;28;20435;-78
2022/03/21 12:05:50;;;;;;;10.43;9.33;;;20.90;44.50;;;;;;5096228;28;20479;-80
2022/03/21 12:08:37;;;;;;;10.33;8.87;;;22.20;43.10;;;;;;5095131;28;20463;-79
2022/03/21 12:12:00;;;;;;;9.17;8.23;;;22.50;43.50;;;;;;5100775;28;20455;-79
2022/03/21 12:14:47;;;;;;;9.47;8.23;;;21.90;43.50;;;;;;5090889;28;20411;-79
2022/03/21 12:17:32;;;;;;;11.30;8.87;;;19.10;41.10;;;;;;5104876;28;20427;-79
2022/03/21 12:20:19;;;;;;;10.17;9.17;;;19.50;42.50;;;;;;5099399;28;20486;-78
2022/03/21 12:23:15;;;;;;;9.20;8.33;;;18.30;43.90;;;;;;5106555;28;20495;-79
2022/03/21 12:26:03;;;;;;;11.27;10.07;;;19.50;43.40;;;;;;5107203;28;20407;-79
2022/03/21 12:32:22;;;;;;;12.87;10.30;;;21.00;43.10;;;;;;5083676;28;20474;-79
2022/03/21 12:35:08;;;;;;;11.67;10.17;;;18.70;42.40;;;;;;5102661;28;20430;-79
2022/03/21 12:37:54;;;;;;;9.53;8.60;;;18.90;42.10;;;;;;5104552;28;20485;-79
2022/03/21 12:41:00;;;;;;;9.40;8.60;;;18.90;47.10;;;;;;5081454;28;20903;-78
2022/03/21 12:43:49;;;;;;;8.50;7.53;;;20.80;41.30;;;;;;5107599;28;20414;-79
2022/03/21 12:46:34;;;;;;;10.40;9.40;;;20.40;43.30;;;;;;5092679;28;20419;-78
2022/03/21 12:49:19;;;;;;;11.07;9.50;;;20.00;43.20;;;;;;5106878;28;20411;-78
2022/03/21 12:52:06;;;;;;;9.53;8.13;;;19.50;41.60;;;;;;5108295;28;20486;-80
2022/03/21 12:54:50;;;;;;;13.83;9.43;;;19.30;43.00;;;;;;5106509;28;20456;-80
2022/03/21 12:58:01;;;;;;;9.97;8.97;;;19.40;41.30;;;;;;5102962;28;20601;-80
2022/03/21 13:00:46;;;;;;;8.53;7.73;;;21.70;40.20;;;;;;5103658;28;20419;-80
2022/03/21 13:03:30;;;;;;;9.47;8.57;;;19.70;40.80;;;;;;5098068;28;20463;-80
2022/03/21 13:12:19;;;;;;;10.17;9.17;;;18.60;39.20;;;;;;5103050;28;20467;-82
2022/03/21 13:15:09;;;;;;;8.90;8.10;;;19.70;40.60;;;;;;5100642;28;20417;-82
2022/03/21 13:18:01;;;;;;;10.23;8.53;;;20.30;40.20;;;;;;5089700;28;20431;-80
2022/03/21 13:20:47;;;;;;;11.10;9.50;;;18.50;39.50;;;;;;5105055;28;20427;-79
2022/03/21 13:23:33;;;;;;;9.93;8.90;;;19.00;39.50;;;;;;5104735;28;20462;-81
2022/03/21 13:26:22;;;;;;;10.57;8.83;;;19.70;40.00;;;;;;5100239;28;20459;-80
2022/03/21 13:29:10;;;;;;;9.43;8.20;;;20.80;40.80;;;;;;5110570;28;20461;-81
2022/03/21 13:31:55;;;;;;;9.97;8.97;;;20.00;39.60;;;;;;5104354;28;20515;-79
2022/03/21 13:34:48;;;;;;;9.40;8.50;;;19.40;39.30;;;;;;5099818;28;20431;-80
2022/03/21 13:37:32;;;;;;;10.23;9.23;;;18.80;39.60;;;;;;5078913;28;20412;-80
2022/03/21 13:40:16;;;;;;;9.57;8.57;;;19.50;38.80;;;;;;5094164;28;20443;-80
2022/03/21 13:43:21;;;;;;;9.53;7.97;;;20.40;39.70;;;;;;5091822;28;20473;-80
2022/03/21 13:46:06;;;;;;;8.93;7.53;;;21.50;39.50;;;;;;5091460;28;20437;-80
2022/03/21 13:48:51;;;;;;;9.77;8.70;;;21.20;37.40;;;;;;5092558;28;20442;-81
2022/03/21 13:51:42;;;;;;;10.00;8.13;;;20.00;38.10;;;;;;5070920;28;20807;-80
2022/03/21 13:54:27;;;;;;;9.23;8.37;;;20.50;38.30;;;;;;5090444;28;20400;-81
2022/03/21 13:57:12;;;;;;;8.93;8.03;;;20.10;38.70;;;;;;5094249;28;20922;-80
2022/03/21 14:00:08;;;;;;;9.70;7.97;;;19.30;37.50;;;;;;5070387;28;20903;-80
2022/03/21 14:02:53;;;;;;;9.40;8.50;;;18.80;37.60;;;;;;5089491;28;20751;-80
2022/03/21 14:06:17;;;;;;;9.23;8.43;;;19.50;38.60;;;;;;5093686;27;20587;-81
2022/03/21 14:09:02;;;;;;;8.87;7.17;;;20.60;41.50;;;;;;5039860;28;20464;-81
2022/03/21 14:11:47;;;;;;;9.23;8.30;;;21.10;38.20;;;;;;5051832;28;20972;-82
2022/03/21 14:14:32;;;;;;;9.40;8.50;;;22.30;36.30;;;;;;5024367;28;20400;-80
2022/03/21 14:17:17;;;;;;;10.80;9.63;;;20.90;35.50;;;;;;5041448;28;20527;-79
2022/03/21 14:20:01;;;;;;;9.50;8.60;;;20.20;36.10;;;;;;5046728;28;20444;-79
2022/03/21 14:22:47;;;;;;;9.70;8.60;;;20.70;37.20;;;;;;5057746;28;20458;-80
2022/03/21 14:28:35;;;;;;;8.70;8.00;;;18.90;37.80;;;;;;5044965;28;20809;-78
2022/03/21 14:31:23;;;;;;;7.60;6.80;;;19.70;38.60;;;;;;5044429;28;20429;-79
2022/03/21 14:34:07;;;;;;;8.80;7.90;;;19.60;39.60;;;;;;5062846;28;20468;-78
2022/03/21 14:36:53;;;;;;;9.93;8.97;;;19.10;38.50;;;;;;5067809;28;20389;-79
2022/03/21 14:39:37;;;;;;;12.80;9.03;;;19.70;38.50;;;;;;5075976;28;20785;-80
2022/03/21 14:42:22;;;;;;;9.50;8.30;;;18.90;37.70;;;;;;5081267;28;20436;-80
2022/03/21 14:45:07;;;;;;;9.20;8.30;;;19.80;39.20;;;;;;5084794;28;20522;-79
2022/03/21 14:47:51;;;;;;;10.80;8.80;;;19.60;38.60;;;;;;5086217;28;20409;-80
2022/03/21 14:50:36;;;;;;;8.40;7.60;;;18.80;38.00;;;;;;5103437;28;20417;-80
2022/03/21 14:53:22;;;;;;;10.53;7.67;;;18.80;38.30;;;;;;5070172;28;20458;-79
2022/03/21 14:56:07;;;;;;;10.90;9.10;;;19.40;38.60;;;;;;5104039;28;20459;-79
2022/03/21 14:58:55;;;;;;;14.23;8.63;;;19.00;38.80;;;;;;5063508;28;20413;-78
2022/03/21 15:01:40;;;;;;;13.00;8.93;;;18.20;38.20;;;;;;5077909;28;20815;-82